Archival Weather

Snohomish County (Paine Fld)

Everett, Washington (KPAE)

Report from: Sunday, November 19, 2023 6:53 PM PST
Current time: Monday, June 17, 2024 1:07 AM PDT

Current weather – Weather history – Daily summaries
Weather forecast

Temperature5.6°C (42.1°F)
Dew point3.3°C (37.9°F)
Winds Calm
Visibility10 mi. (16.1 km)
Clouds Sky clear
Altimeter30.47 in.Hg (1032 mB)
Relative humidity85 %
Density altitude-1,665 ft. (-507 m)
Sea-level pressure103.2 kPa (1032 mB, 30.48 in.Hg)
Remarks Automated weather observing station with precipitation discriminator
Pressure rising
Flight conditions Visual Meteorological Conditions
Raw dataKPAE 200253Z 00000KT 10SM CLR 06/03 A3047 RMK AO2 SLP323 T00560033 52024
An error has occurred. This application may no longer respond until reloaded. Reload 🗙